Time;durP1;ratioP1;P1;durP2;ratioP2;P2;SDS_P1;SDS_P2;PMS_P1;PMS_P2;Temp;Humidity;BMP_temperature;BMP_pressure;BME280_temperature;BME280_humidity;BME280_pressure;Samples;Min_cycle;Max_cycle;Signal;HPM_P1;HPM_P2
2022/08/25 00:00:16;;;;;;;;;;;13.50;99.90;;;;;;5124968;27;19912;-57
2022/08/25 00:02:56;;;;;;;;;;;13.50;99.90;;;;;;5105168;27;19912;-56
2022/08/25 00:05:36;;;;;;;;;;;13.40;99.90;;;;;;5105039;27;20434;-57
2022/08/25 00:08:16;;;;;;;;;;;13.40;99.90;;;;;;5162045;27;20306;-57
2022/08/25 00:10:56;;;;;;;;;;;13.30;99.90;;;;;;5104736;27;20258;-57
2022/08/25 00:13:35;;;;;;;;;;;13.40;99.90;;;;;;5125560;27;19912;-57
2022/08/25 00:16:16;;;;;;;;;;;13.30;99.90;;;;;;5105228;27;19973;-56
2022/08/25 00:18:58;;;;;;;;;;;13.30;99.90;;;;;;5124868;27;20136;-56
2022/08/25 00:21:39;;;;;;;;;;;13.20;99.90;;;;;;5124833;27;19912;-56
2022/08/25 00:24:21;;;;;;;;;;;13.20;99.90;;;;;;5106155;27;19957;-56
2022/08/25 00:27:01;;;;;;;;;;;13.20;99.90;;;;;;5125718;27;20342;-56
2022/08/25 00:29:41;;;;;;;;;;;13.20;99.90;;;;;;5104663;27;19981;-57
2022/08/25 00:32:21;;;;;;;;;;;13.20;99.90;;;;;;5125883;27;19918;-57
2022/08/25 00:35:01;;;;;;;;;;;13.20;99.90;;;;;;5125823;27;19918;-57
2022/08/25 00:37:40;;;;;;;;;;;13.20;99.90;;;;;;5125344;27;19918;-57
2022/08/25 00:40:20;;;;;;;;;;;13.20;99.90;;;;;;5123392;27;19918;-56
2022/08/25 00:43:00;;;;;;;;;;;13.20;99.90;;;;;;5125876;27;19912;-57
2022/08/25 00:45:40;;;;;;;;;;;13.20;99.90;;;;;;5125199;27;19912;-57
2022/08/25 00:48:20;;;;;;;;;;;13.30;99.90;;;;;;5125885;27;19912;-57
2022/08/25 00:51:00;;;;;;;;;;;13.30;99.90;;;;;;5117361;27;19912;-57
2022/08/25 00:53:41;;;;;;;;;;;13.30;99.90;;;;;;5125681;27;20100;-57
2022/08/25 00:56:22;;;;;;;;;;;13.20;99.90;;;;;;5104594;27;19918;-57
2022/08/25 00:59:03;;;;;;;;;;;13.10;99.90;;;;;;5124087;27;20320;-57
2022/08/25 01:01:44;;;;;;;;;;;13.10;99.90;;;;;;5119542;27;19934;-55
2022/08/25 01:04:24;;;;;;;;;;;13.00;99.90;;;;;;5127170;27;19915;-57
2022/08/25 01:07:06;;;;;;;;;;;13.00;99.90;;;;;;5084476;28;19912;-56
2022/08/25 01:09:47;;;;;;;;;;;13.00;99.90;;;;;;5125367;27;19912;-55
2022/08/25 01:12:28;;;;;;;;;;;12.90;99.90;;;;;;5125272;27;19915;-56
2022/08/25 01:15:09;;;;;;;;;;;12.80;99.90;;;;;;5125582;27;19912;-57
2022/08/25 01:17:50;;;;;;;;;;;12.80;99.90;;;;;;5125225;27;19912;-57
2022/08/25 01:20:31;;;;;;;;;;;12.80;99.90;;;;;;5104204;27;19926;-57
2022/08/25 01:23:12;;;;;;;;;;;12.90;99.90;;;;;;5125480;27;19918;-56
2022/08/25 01:25:56;;;;;;;;;;;12.90;99.90;;;;;;5105040;27;19916;-57
2022/08/25 01:28:37;;;;;;;;;;;13.00;99.90;;;;;;5125438;27;19919;-57
2022/08/25 01:31:18;;;;;;;;;;;12.90;99.90;;;;;;5115469;27;19918;-57
2022/08/25 01:33:58;;;;;;;;;;;12.90;99.90;;;;;;5108461;27;19946;-54
2022/08/25 01:36:38;;;;;;;;;;;12.90;99.90;;;;;;5125597;27;19916;-55
2022/08/25 01:39:21;;;;;;;;;;;12.80;99.90;;;;;;5125541;27;19920;-56
2022/08/25 01:42:13;;;;;;;;;;;12.80;99.90;;;;;;5125608;27;20438;-57
2022/08/25 01:44:53;;;;;;;;;;;12.70;99.90;;;;;;5105546;27;20354;-57
2022/08/25 01:47:33;;;;;;;;;;;12.70;99.90;;;;;;5125564;27;20288;-57
2022/08/25 01:50:12;;;;;;;;;;;12.70;99.90;;;;;;5124406;27;19916;-57
2022/08/25 01:52:55;;;;;;;;;;;12.70;99.90;;;;;;5121457;27;19918;-55
2022/08/25 01:58:32;;;;;;;;;;;12.70;99.90;;;;;;5118796;27;19930;-57
2022/08/25 02:01:20;;;;;;;;;;;12.70;99.90;;;;;;5093475;27;19916;-55
2022/08/25 02:04:00;;;;;;;;;;;12.70;99.90;;;;;;5124306;27;20284;-57
2022/08/25 02:06:40;;;;;;;;;;;12.70;99.90;;;;;;5123869;27;19918;-56
2022/08/25 02:09:20;;;;;;;;;;;12.60;99.90;;;;;;5124220;27;19918;-58
2022/08/25 02:12:00;;;;;;;;;;;12.60;99.90;;;;;;5125481;27;19926;-57
2022/08/25 02:14:39;;;;;;;;;;;12.60;99.90;;;;;;5124999;27;19911;-57
2022/08/25 02:17:19;;;;;;;;;;;12.60;99.90;;;;;;5125064;27;20273;-57
2022/08/25 02:19:59;;;;;;;;;;;12.70;99.90;;;;;;5125161;27;19916;-57
2022/08/25 02:22:39;;;;;;;;;;;12.70;99.90;;;;;;5124531;27;19911;-57
2022/08/25 02:25:19;;;;;;;;;;;12.70;99.90;;;;;;5125240;27;19926;-57
2022/08/25 02:27:59;;;;;;;;;;;12.70;99.90;;;;;;5125137;27;19945;-58
2022/08/25 02:30:41;;;;;;;;;;;12.70;99.90;;;;;;5121272;27;19912;-57
2022/08/25 02:33:21;;;;;;;;;;;12.90;99.90;;;;;;5125633;27;19918;-57
2022/08/25 02:36:01;;;;;;;;;;;13.00;99.90;;;;;;5125335;27;20393;-57
2022/08/25 02:38:41;;;;;;;;;;;13.00;99.90;;;;;;5124992;27;19922;-56
2022/08/25 02:41:23;;;;;;;;;;;13.00;99.90;;;;;;5115474;27;19912;-57
2022/08/25 02:44:04;;;;;;;;;;;12.90;99.90;;;;;;5105656;27;19969;-56
2022/08/25 02:46:44;;;;;;;;;;;12.90;99.90;;;;;;5104656;27;19916;-57
2022/08/25 02:49:24;;;;;;;;;;;12.80;99.90;;;;;;5124463;27;19954;-57
2022/08/25 02:52:04;;;;;;;;;;;12.80;99.90;;;;;;5105408;27;20367;-56
2022/08/25 02:54:43;;;;;;;;;;;12.70;99.90;;;;;;5125472;27;20395;-57
2022/08/25 02:57:23;;;;;;;;;;;12.60;99.90;;;;;;5125007;27;19912;-56
2022/08/25 03:00:04;;;;;;;;;;;12.60;99.90;;;;;;5104427;27;19922;-57
2022/08/25 03:02:45;;;;;;;;;;;12.50;99.90;;;;;;5130515;27;19920;-57
2022/08/25 03:05:26;;;;;;;;;;;12.60;99.90;;;;;;5104136;27;19954;-55
2022/08/25 03:08:06;;;;;;;;;;;12.60;99.90;;;;;;5104367;27;20348;-57
2022/08/25 03:10:47;;;;;;;;;;;12.50;99.90;;;;;;5101107;27;19912;-57
2022/08/25 03:13:27;;;;;;;;;;;12.40;99.90;;;;;;5124977;27;19922;-57
2022/08/25 03:16:07;;;;;;;;;;;12.30;99.90;;;;;;5120712;27;19912;-57
2022/08/25 03:18:48;;;;;;;;;;;12.40;99.90;;;;;;5102695;27;19934;-57
2022/08/25 03:21:29;;;;;;;;;;;12.50;99.90;;;;;;5120671;27;19912;-57
2022/08/25 03:24:09;;;;;;;;;;;12.50;99.90;;;;;;5101646;27;19912;-57
2022/08/25 03:26:55;;;;;;;;;;;12.40;99.90;;;;;;5117902;27;20391;-56
2022/08/25 03:29:35;;;;;;;;;;;12.40;99.90;;;;;;5103146;27;20410;-57
2022/08/25 03:32:15;;;;;;;;;;;12.40;99.90;;;;;;5103580;27;20415;-57
2022/08/25 03:34:55;;;;;;;;;;;12.40;99.90;;;;;;5104912;27;19922;-57
2022/08/25 03:37:35;;;;;;;;;;;12.40;99.90;;;;;;5124511;27;19918;-55
2022/08/25 03:40:16;;;;;;;;;;;12.30;99.90;;;;;;5124111;27;20390;-57
2022/08/25 03:42:56;;;;;;;;;;;12.20;99.90;;;;;;5125449;27;19912;-57
2022/08/25 03:45:39;;;;;;;;;;;12.20;99.90;;;;;;5117254;27;19918;-55
2022/08/25 03:48:19;;;;;;;;;;;12.10;99.90;;;;;;5103553;27;19918;-57
2022/08/25 03:50:59;;;;;;;;;;;12.10;99.90;;;;;;5123785;27;19912;-57
2022/08/25 03:53:39;;;;;;;;;;;12.00;99.90;;;;;;5124679;27;19918;-57
2022/08/25 03:56:19;;;;;;;;;;;12.00;99.90;;;;;;5125093;27;19938;-57
2022/08/25 03:59:00;;;;;;;;;;;12.10;99.90;;;;;;5124147;27;19918;-57
2022/08/25 04:01:41;;;;;;;;;;;12.10;99.90;;;;;;5125040;27;19918;-57
2022/08/25 04:04:21;;;;;;;;;;;12.10;99.90;;;;;;5104722;27;20439;-57
2022/08/25 04:07:01;;;;;;;;;;;12.10;99.90;;;;;;5105028;27;19961;-57
2022/08/25 04:09:41;;;;;;;;;;;12.00;99.90;;;;;;5124377;27;19918;-57
2022/08/25 04:12:21;;;;;;;;;;;12.10;99.90;;;;;;5115283;27;19950;-57
2022/08/25 04:15:01;;;;;;;;;;;12.10;99.90;;;;;;5125567;27;19953;-57
2022/08/25 04:17:42;;;;;;;;;;;12.20;99.90;;;;;;5124874;27;19912;-57
2022/08/25 04:20:22;;;;;;;;;;;12.40;99.90;;;;;;5123470;27;19918;-57
2022/08/25 04:23:01;;;;;;;;;;;12.40;99.90;;;;;;5123072;27;19922;-57
2022/08/25 04:25:42;;;;;;;;;;;12.50;99.90;;;;;;5124058;27;20442;-57
2022/08/25 04:28:21;;;;;;;;;;;12.50;99.90;;;;;;5103317;27;19919;-57
2022/08/25 04:31:01;;;;;;;;;;;12.50;99.90;;;;;;5095324;27;19954;-55
2022/08/25 04:33:41;;;;;;;;;;;12.60;99.90;;;;;;5104279;27;19950;-57
2022/08/25 04:36:21;;;;;;;;;;;12.60;99.90;;;;;;5125333;27;19912;-58
2022/08/25 04:39:01;;;;;;;;;;;12.70;99.90;;;;;;5124553;27;20270;-57
2022/08/25 04:41:40;;;;;;;;;;;12.70;99.90;;;;;;5114836;27;19916;-55
2022/08/25 04:44:20;;;;;;;;;;;12.90;99.90;;;;;;5105319;27;19930;-57
2022/08/25 04:47:00;;;;;;;;;;;13.10;99.90;;;;;;5125671;27;19919;-58
2022/08/25 04:49:40;;;;;;;;;;;13.30;99.90;;;;;;5124999;27;19918;-57
2022/08/25 04:52:20;;;;;;;;;;;13.50;99.90;;;;;;5104854;27;20439;-57
2022/08/25 04:55:01;;;;;;;;;;;13.60;99.90;;;;;;5125416;27;19922;-58
2022/08/25 04:57:41;;;;;;;;;;;13.70;99.90;;;;;;5103394;27;19977;-57
2022/08/25 05:00:21;;;;;;;;;;;13.90;99.90;;;;;;5123415;27;20185;-57
2022/08/25 05:03:00;;;;;;;;;;;13.90;99.90;;;;;;5125285;27;20365;-54
2022/08/25 05:05:40;;;;;;;;;;;14.00;99.90;;;;;;5124983;27;20103;-57
2022/08/25 05:08:20;;;;;;;;;;;14.10;99.90;;;;;;5125303;27;19912;-57
2022/08/25 05:11:04;;;;;;;;;;;14.20;99.90;;;;;;5116757;27;19916;-57
2022/08/25 05:13:45;;;;;;;;;;;14.40;99.90;;;;;;5104220;27;19934;-57
2022/08/25 05:16:25;;;;;;;;;;;14.50;99.90;;;;;;5124241;27;19912;-57
2022/08/25 05:19:06;;;;;;;;;;;14.60;99.90;;;;;;5124479;27;19920;-57
2022/08/25 05:21:48;;;;;;;;;;;14.70;99.90;;;;;;5103585;27;19916;-57
2022/08/25 05:24:28;;;;;;;;;;;14.90;99.90;;;;;;5125058;27;19912;-57
2022/08/25 05:27:09;;;;;;;;;;;15.10;99.90;;;;;;5124784;27;20292;-57
2022/08/25 05:29:48;;;;;;;;;;;15.20;99.90;;;;;;5124506;27;20442;-57
2022/08/25 05:32:28;;;;;;;;;;;15.20;99.90;;;;;;5124971;27;19912;-57
2022/08/25 05:35:08;;;;;;;;;;;15.30;99.90;;;;;;5084095;28;19917;-57
2022/08/25 05:37:48;;;;;;;;;;;15.40;99.90;;;;;;5124619;27;19912;-57
2022/08/25 05:40:28;;;;;;;;;;;15.50;99.90;;;;;;5121384;27;19912;-57
2022/08/25 05:43:08;;;;;;;;;;;15.70;99.90;;;;;;5125378;27;20296;-57
2022/08/25 05:45:47;;;;;;;;;;;15.80;99.90;;;;;;5124712;27;19919;-57
2022/08/25 05:48:27;;;;;;;;;;;16.00;99.90;;;;;;5125096;27;19918;-57
2022/08/25 05:51:09;;;;;;;;;;;16.10;99.90;;;;;;5116031;27;19919;-57
2022/08/25 05:53:49;;;;;;;;;;;16.30;99.90;;;;;;5126079;27;20527;-55
2022/08/25 05:56:30;;;;;;;;;;;16.40;99.90;;;;;;5125031;27;19920;-56
2022/08/25 05:59:10;;;;;;;;;;;16.60;99.90;;;;;;5103905;27;20423;-57
2022/08/25 06:04:47;;;;;;;;;;;16.90;99.90;;;;;;5125216;27;19918;-57
2022/08/25 06:07:27;;;;;;;;;;;17.20;99.90;;;;;;5124813;27;19919;-57
2022/08/25 06:10:10;;;;;;;;;;;17.40;99.90;;;;;;5124808;27;19961;-57
2022/08/25 06:12:50;;;;;;;;;;;17.50;99.90;;;;;;5112462;27;19922;-55
2022/08/25 06:15:29;;;;;;;;;;;17.50;99.90;;;;;;5104721;27;19912;-57
2022/08/25 06:18:09;;;;;;;;;;;17.60;99.90;;;;;;5123916;27;20287;-57
2022/08/25 06:20:49;;;;;;;;;;;17.60;99.90;;;;;;5118916;27;19922;-57
2022/08/25 06:23:29;;;;;;;;;;;17.60;99.90;;;;;;5124817;27;19912;-55
2022/08/25 06:26:11;;;;;;;;;;;17.70;99.90;;;;;;5104374;27;19946;-57
2022/08/25 06:28:52;;;;;;;;;;;17.70;99.90;;;;;;5123414;27;19916;-56
2022/08/25 06:31:33;;;;;;;;;;;17.80;99.90;;;;;;5112363;27;19912;-56
2022/08/25 06:34:13;;;;;;;;;;;17.90;99.90;;;;;;5125336;27;19911;-57
2022/08/25 06:36:53;;;;;;;;;;;18.20;99.90;;;;;;5125224;27;19912;-57
2022/08/25 06:39:33;;;;;;;;;;;18.40;99.90;;;;;;5104058;27;19912;-55
2022/08/25 06:42:13;;;;;;;;;;;18.60;99.90;;;;;;5117023;27;20343;-57
2022/08/25 06:44:52;;;;;;;;;;;18.60;99.90;;;;;;5125492;27;20099;-57
2022/08/25 06:47:32;;;;;;;;;;;18.70;99.90;;;;;;5124816;27;19912;-57
2022/08/25 06:50:12;;;;;;;;;;;19.00;99.90;;;;;;5124153;27;19916;-56
2022/08/25 06:52:52;;;;;;;;;;;19.20;99.90;;;;;;5125467;27;19911;-57
2022/08/25 06:55:33;;;;;;;;;;;19.30;99.90;;;;;;5104468;27;19953;-57
2022/08/25 06:58:13;;;;;;;;;;;19.40;99.90;;;;;;5124725;27;19918;-58
2022/08/25 07:00:53;;;;;;;;;;;19.60;99.90;;;;;;5124787;27;19915;-56
2022/08/25 07:03:33;;;;;;;;;;;19.90;99.90;;;;;;5125164;27;19912;-54
2022/08/25 07:06:12;;;;;;;;;;;20.20;99.90;;;;;;5161234;27;20424;-56
2022/08/25 07:08:52;;;;;;;;;;;20.40;99.90;;;;;;5100784;27;19935;-55
2022/08/25 07:11:33;;;;;;;;;;;20.60;99.90;;;;;;5114889;27;20280;-56
2022/08/25 07:14:15;;;;;;;;;;;20.70;99.90;;;;;;5125102;27;20114;-57
2022/08/25 07:16:55;;;;;;;;;;;20.80;99.90;;;;;;5103582;27;19953;-57
2022/08/25 07:19:35;;;;;;;;;;;20.90;99.90;;;;;;5123623;27;19912;-56
2022/08/25 07:22:15;;;;;;;;;;;21.00;99.90;;;;;;5103611;27;20350;-57
2022/08/25 07:24:55;;;;;;;;;;;21.30;99.90;;;;;;5124481;27;20331;-57
2022/08/25 07:27:34;;;;;;;;;;;21.50;99.90;;;;;;5103757;27;19918;-57
2022/08/25 07:30:16;;;;;;;;;;;21.80;99.90;;;;;;5123968;27;19955;-56
2022/08/25 07:32:56;;;;;;;;;;;22.00;99.90;;;;;;5104126;27;20578;-57
2022/08/25 07:35:36;;;;;;;;;;;22.20;99.90;;;;;;5104160;27;19926;-56
2022/08/25 07:38:15;;;;;;;;;;;22.40;99.90;;;;;;5152138;27;19965;-55
2022/08/25 07:41:00;;;;;;;;;;;22.40;99.90;;;;;;5117970;27;19912;-57
2022/08/25 07:43:41;;;;;;;;;;;22.60;99.90;;;;;;5124265;27;19926;-57
2022/08/25 07:46:21;;;;;;;;;;;22.60;99.90;;;;;;5103957;27;20134;-54
2022/08/25 07:49:01;;;;;;;;;;;22.60;99.90;;;;;;5124319;27;20450;-57
2022/08/25 07:51:41;;;;;;;;;;;22.60;99.90;;;;;;5155590;22;20750;-54
2022/08/25 07:54:21;;;;;;;;;;;22.50;99.90;;;;;;5125919;27;20232;-56
2022/08/25 07:57:02;;;;;;;;;;;22.60;99.90;;;;;;5125312;27;19922;-56
2022/08/25 07:59:42;;;;;;;;;;;22.60;99.90;;;;;;5124937;27;20093;-56
2022/08/25 08:02:22;;;;;;;;;;;22.60;99.90;;;;;;5116027;27;19917;-56
2022/08/25 08:05:02;;;;;;;;;;;22.60;99.90;;;;;;5105008;27;20319;-56
2022/08/25 08:07:42;;;;;;;;;;;22.80;99.90;;;;;;5124889;27;19916;-56
2022/08/25 08:10:21;;;;;;;;;;;22.70;99.90;;;;;;5083028;28;19912;-57
2022/08/25 08:13:01;;;;;;;;;;;22.80;99.90;;;;;;5124531;27;19938;-56
2022/08/25 08:15:41;;;;;;;;;;;23.00;99.90;;;;;;5103985;27;19912;-56
2022/08/25 08:18:23;;;;;;;;;;;23.10;99.90;;;;;;5083336;28;20386;-56
2022/08/25 08:21:04;;;;;;;;;;;23.20;99.90;;;;;;5103665;27;19912;-56
2022/08/25 08:23:44;;;;;;;;;;;23.30;99.90;;;;;;5132827;27;19919;-56
2022/08/25 08:26:26;;;;;;;;;;;23.30;99.90;;;;;;5125296;27;19912;-56
2022/08/25 08:29:06;;;;;;;;;;;23.40;99.90;;;;;;5124283;27;19916;-56
2022/08/25 08:31:46;;;;;;;;;;;23.60;99.90;;;;;;5120874;27;19912;-56
2022/08/25 08:34:26;;;;;;;;;;;23.80;99.90;;;;;;5125248;27;19918;-56
2022/08/25 08:37:06;;;;;;;;;;;23.90;99.90;;;;;;5125848;27;19926;-56
2022/08/25 08:39:46;;;;;;;;;;;24.10;99.90;;;;;;5124884;27;19926;-56
2022/08/25 08:42:36;;;;;;;;;;;24.20;99.90;;;;;;5125165;27;19953;-56
2022/08/25 08:45:28;;;;;;;;;;;24.10;99.90;;;;;;5125643;27;19920;-56
2022/08/25 08:48:21;;;;;;;;;;;24.10;99.90;;;;;;5125116;27;19918;-56
2022/08/25 08:51:07;;;;;;;;;;;24.20;99.90;;;;;;5125023;27;19912;-56
2022/08/25 08:53:51;;;;;;;;;;;24.20;99.90;;;;;;5125233;27;19911;-56
2022/08/25 08:56:35;;;;;;;;;;;24.30;99.90;;;;;;5125403;27;20373;-56
2022/08/25 08:59:18;;;;;;;;;;;24.50;99.90;;;;;;5104800;27;19916;-56
2022/08/25 09:02:00;;;;;;;;;;;24.50;99.90;;;;;;5125957;27;19957;-57
2022/08/25 09:04:43;;;;;;;;;;;24.70;99.90;;;;;;5105203;27;19912;-56
2022/08/25 09:07:26;;;;;;;;;;;24.80;99.90;;;;;;5125593;27;19926;-56
2022/08/25 09:10:07;;;;;;;;;;;24.90;99.90;;;;;;5124993;27;19915;-56
2022/08/25 09:12:53;;;;;;;;;;;24.90;99.90;;;;;;5112483;27;19912;-56
2022/08/25 09:18:38;;;;;;;;;;;25.20;99.90;;;;;;5124933;27;20362;-56
2022/08/25 09:21:21;;;;;;;;;;;25.20;99.90;;;;;;5125351;27;19911;-56
2022/08/25 09:24:08;;;;;;;;;;;25.20;99.90;;;;;;5154830;27;19938;-55
2022/08/25 09:26:53;;;;;;;;;;;25.20;99.90;;;;;;5125091;27;19912;-56
2022/08/25 09:29:45;;;;;;;;;;;25.20;99.90;;;;;;5125076;27;19918;-56
2022/08/25 09:32:27;;;;;;;;;;;25.30;99.90;;;;;;5116104;27;19953;-56
2022/08/25 09:35:10;;;;;;;;;;;25.40;99.90;;;;;;5125658;27;19916;-56
2022/08/25 09:37:57;;;;;;;;;;;25.50;99.90;;;;;;5145582;27;19918;-56
2022/08/25 09:40:39;;;;;;;;;;;25.30;99.90;;;;;;5124558;27;19949;-55
2022/08/25 09:43:21;;;;;;;;;;;25.20;99.90;;;;;;5125345;27;19916;-56
2022/08/25 09:46:02;;;;;;;;;;;25.20;99.90;;;;;;5125209;27;19916;-57
2022/08/25 09:48:47;;;;;;;;;;;25.10;99.90;;;;;;5124860;27;20283;-56
2022/08/25 09:51:28;;;;;;;;;;;25.20;99.90;;;;;;5118203;27;19913;-56
2022/08/25 09:54:18;;;;;;;;;;;25.40;99.90;;;;;;5110240;27;19916;-56
2022/08/25 09:57:00;;;;;;;;;;;25.60;99.90;;;;;;5120478;27;19915;-56
2022/08/25 09:59:41;;;;;;;;;;;26.00;99.90;;;;;;5145986;27;20372;-56
2022/08/25 10:02:24;;;;;;;;;;;26.10;99.90;;;;;;5114004;27;19912;-56
2022/08/25 10:05:17;;;;;;;;;;;26.00;99.90;;;;;;5119901;27;20215;-56
2022/08/25 10:07:58;;;;;;;;;;;26.20;99.90;;;;;;5124161;27;20479;-56
2022/08/25 10:10:40;;;;;;;;;;;26.40;99.90;;;;;;5123016;27;20284;-56
2022/08/25 10:13:22;;;;;;;;;;;26.60;99.90;;;;;;5143572;27;19916;-56
2022/08/25 10:16:07;;;;;;;;;;;26.60;99.90;;;;;;5090066;27;19912;-56
2022/08/25 10:18:59;;;;;;;;;;;26.60;99.90;;;;;;5100601;27;19916;-56
2022/08/25 10:21:40;;;;;;;;;;;26.60;99.90;;;;;;5121291;27;20413;-56
2022/08/25 10:24:21;;;;;;;;;;;26.50;99.90;;;;;;5148804;27;19925;-56
2022/08/25 10:27:04;;;;;;;;;;;26.50;99.90;;;;;;5124560;27;19915;-56
2022/08/25 10:30:00;;;;;;;;;;;26.30;99.90;;;;;;5124648;27;20393;-56
2022/08/25 10:32:52;;;;;;;;;;;26.20;99.90;;;;;;5113450;27;19938;-56
2022/08/25 10:35:34;;;;;;;;;;;26.10;99.90;;;;;;5084009;28;19912;-56
2022/08/25 10:38:25;;;;;;;;;;;26.10;99.90;;;;;;5104080;27;19953;-56
2022/08/25 10:41:16;;;;;;;;;;;26.20;99.90;;;;;;5125147;27;19927;-56
2022/08/25 10:44:02;;;;;;;;;;;26.40;99.90;;;;;;5105131;27;19916;-56
2022/08/25 10:46:45;;;;;;;;;;;26.50;99.90;;;;;;5125703;27;20134;-56
2022/08/25 10:49:27;;;;;;;;;;;26.40;99.90;;;;;;5107249;27;19912;-56
2022/08/25 10:52:12;;;;;;;;;;;26.40;99.90;;;;;;5125462;27;19912;-56
2022/08/25 10:54:58;;;;;;;;;;;26.40;99.90;;;;;;5125681;27;19957;-56
2022/08/25 10:57:44;;;;;;;;;;;26.60;99.90;;;;;;5124999;27;20357;-56
2022/08/25 11:00:28;;;;;;;;;;;26.60;99.90;;;;;;5124914;27;19918;-56
2022/08/25 11:03:23;;;;;;;;;;;26.70;99.90;;;;;;5125903;27;19931;-56
2022/08/25 11:06:05;;;;;;;;;;;26.90;99.90;;;;;;5125008;27;19912;-56
2022/08/25 11:08:48;;;;;;;;;;;26.90;99.90;;;;;;5124725;27;19920;-55
2022/08/25 11:11:31;;;;;;;;;;;26.90;99.90;;;;;;5124899;27;19911;-56
2022/08/25 11:14:16;;;;;;;;;;;26.70;99.90;;;;;;5125382;27;19919;-56
2022/08/25 11:16:59;;;;;;;;;;;26.70;99.90;;;;;;5125414;27;19912;-58
2022/08/25 11:19:41;;;;;;;;;;;26.80;99.90;;;;;;5104066;27;19953;-56
2022/08/25 11:22:24;;;;;;;;;;;27.00;99.90;;;;;;5125043;27;19916;-56
2022/08/25 11:25:09;;;;;;;;;;;27.20;99.90;;;;;;5104121;27;19912;-56
2022/08/25 11:27:54;;;;;;;;;;;27.30;99.90;;;;;;5123689;27;19915;-56
2022/08/25 11:30:34;;;;;;;;;;;27.10;99.90;;;;;;5123402;27;19915;-56
2022/08/25 11:33:16;;;;;;;;;;;27.10;99.90;;;;;;5125787;27;19916;-56
2022/08/25 11:35:59;;;;;;;;;;;27.10;99.90;;;;;;5124985;27;20299;-56
2022/08/25 11:38:46;;;;;;;;;;;27.00;99.90;;;;;;5124833;27;19911;-56
2022/08/25 11:41:32;;;;;;;;;;;27.00;99.90;;;;;;5103004;27;19982;-58
2022/08/25 11:44:18;;;;;;;;;;;26.90;99.90;;;;;;5125520;27;20265;-56
2022/08/25 11:47:10;;;;;;;;;;;26.80;99.90;;;;;;5125893;27;20392;-56
2022/08/25 11:49:52;;;;;;;;;;;27.00;99.90;;;;;;5104627;27;19930;-56
2022/08/25 11:52:47;;;;;;;;;;;27.20;99.90;;;;;;5104818;27;19912;-56
2022/08/25 11:55:32;;;;;;;;;;;27.40;99.60;;;;;;5105040;27;19930;-56
2022/08/25 11:58:30;;;;;;;;;;;27.40;97.80;;;;;;5125685;27;19911;-56
2022/08/25 12:01:32;;;;;;;;;;;27.40;97.70;;;;;;5104806;27;19912;-57
2022/08/25 12:04:14;;;;;;;;;;;27.60;97.90;;;;;;5172892;27;19911;-56
2022/08/25 12:07:13;;;;;;;;;;;27.70;96.80;;;;;;5125286;27;19918;-56
2022/08/25 12:10:12;;;;;;;;;;;27.90;97.70;;;;;;5124672;27;19934;-56
2022/08/25 12:13:04;;;;;;;;;;;28.10;96.80;;;;;;5113419;27;19930;-56
2022/08/25 12:15:57;;;;;;;;;;;28.10;94.60;;;;;;5124639;27;19915;-56
2022/08/25 12:18:43;;;;;;;;;;;28.10;92.30;;;;;;5125156;27;19915;-56
2022/08/25 12:21:33;;;;;;;;;;;28.10;91.80;;;;;;5124106;27;19922;-56
2022/08/25 12:24:36;;;;;;;;;;;27.90;92.00;;;;;;5104948;27;19916;-56
2022/08/25 12:27:24;;;;;;;;;;;28.00;90.70;;;;;;5124859;27;19916;-56
2022/08/25 12:30:12;;;;;;;;;;;28.20;91.00;;;;;;5099051;27;19934;-56
2022/08/25 12:33:00;;;;;;;;;;;28.20;89.90;;;;;;5125293;27;19916;-56
2022/08/25 12:35:48;;;;;;;;;;;28.30;90.00;;;;;;5104262;27;19918;-56
2022/08/25 12:38:31;;;;;;;;;;;28.30;89.70;;;;;;5124243;27;20402;-56
2022/08/25 12:41:12;;;;;;;;;;;28.50;87.20;;;;;;5123768;27;19915;-56
2022/08/25 12:44:01;;;;;;;;;;;28.50;85.80;;;;;;5125412;27;19916;-56
2022/08/25 12:46:43;;;;;;;;;;;28.50;82.10;;;;;;5139087;27;19918;-56
2022/08/25 12:49:31;;;;;;;;;;;28.60;79.50;;;;;;5123923;27;19946;-56
2022/08/25 12:52:15;;;;;;;;;;;28.40;81.00;;;;;;5124525;27;19922;-56
2022/08/25 12:54:57;;;;;;;;;;;28.70;80.90;;;;;;5097890;27;19918;-56
2022/08/25 12:57:40;;;;;;;;;;;28.80;80.20;;;;;;5125108;27;19911;-56
2022/08/25 13:00:22;;;;;;;;;;;28.80;74.50;;;;;;5102620;27;19920;-56
2022/08/25 13:03:11;;;;;;;;;;;28.80;74.40;;;;;;5109163;27;20378;-56
2022/08/25 13:06:05;;;;;;;;;;;28.80;73.90;;;;;;5123945;27;20472;-56
2022/08/25 13:09:10;;;;;;;;;;;28.80;74.40;;;;;;5099202;27;19957;-56
2022/08/25 13:11:52;;;;;;;;;;;28.80;71.60;;;;;;5121129;27;19926;-56
2022/08/25 13:14:37;;;;;;;;;;;28.80;73.90;;;;;;5109640;27;19923;-56
2022/08/25 13:17:26;;;;;;;;;;;28.80;70.40;;;;;;5122135;27;20292;-57
2022/08/25 13:20:12;;;;;;;;;;;28.80;72.50;;;;;;5123914;27;19912;-56
2022/08/25 13:22:56;;;;;;;;;;;28.90;70.90;;;;;;5120741;27;19918;-56
2022/08/25 13:25:38;;;;;;;;;;;28.80;70.20;;;;;;5120544;27;20186;-56
2022/08/25 13:28:22;;;;;;;;;;;28.60;70.20;;;;;;5118680;27;19923;-56
2022/08/25 13:31:04;;;;;;;;;;;28.30;71.10;;;;;;5083266;28;19966;-56
2022/08/25 13:33:51;;;;;;;;;;;28.40;75.90;;;;;;5122389;27;20098;-56
2022/08/25 13:39:33;;;;;;;;;;;28.70;70.50;;;;;;5120640;27;19926;-56
2022/08/25 13:42:16;;;;;;;;;;;28.50;70.40;;;;;;5117096;27;20340;-56
2022/08/25 13:44:57;;;;;;;;;;;28.40;70.90;;;;;;5122939;27;20287;-56
2022/08/25 13:47:40;;;;;;;;;;;28.40;73.80;;;;;;5120503;27;19911;-56
2022/08/25 13:50:30;;;;;;;;;;;28.60;72.70;;;;;;5135668;27;20385;-56
2022/08/25 13:53:13;;;;;;;;;;;28.70;71.10;;;;;;5121345;27;19911;-56
2022/08/25 13:55:55;;;;;;;;;;;28.70;68.30;;;;;;5102136;27;19977;-58
2022/08/25 13:58:36;;;;;;;;;;;28.60;67.60;;;;;;5122703;27;20369;-56
2022/08/25 14:01:19;;;;;;;;;;;28.70;69.90;;;;;;5123994;27;20315;-56
2022/08/25 14:04:19;;;;;;;;;;;28.80;66.30;;;;;;5122074;27;19930;-55
2022/08/25 14:07:12;;;;;;;;;;;29.00;65.90;;;;;;5123455;27;19911;-55
2022/08/25 14:09:53;;;;;;;;;;;29.10;66.50;;;;;;5129206;27;20400;-56
2022/08/25 14:12:36;;;;;;;;;;;29.10;65.30;;;;;;5113073;27;19916;-56
2022/08/25 14:15:28;;;;;;;;;;;29.10;65.00;;;;;;5125583;27;19915;-55
2022/08/25 14:18:10;;;;;;;;;;;29.10;64.90;;;;;;5125016;27;19922;-57
2022/08/25 14:20:51;;;;;;;;;;;29.20;66.10;;;;;;5124639;27;20348;-56
2022/08/25 14:23:31;;;;;;;;;;;29.00;65.00;;;;;;5125418;27;19912;-56
2022/08/25 14:26:11;;;;;;;;;;;28.60;66.90;;;;;;5123685;27;19918;-56
2022/08/25 14:28:50;;;;;;;;;;;28.20;68.80;;;;;;5140118;27;20553;-56
2022/08/25 14:31:32;;;;;;;;;;;28.10;69.10;;;;;;5123224;27;20421;-56
2022/08/25 14:34:14;;;;;;;;;;;28.30;68.60;;;;;;5126265;27;19916;-56
2022/08/25 14:36:53;;;;;;;;;;;28.40;69.10;;;;;;5104988;27;19920;-56
2022/08/25 14:39:33;;;;;;;;;;;28.50;69.00;;;;;;5125132;27;19920;-56
2022/08/25 14:42:13;;;;;;;;;;;28.80;69.70;;;;;;5142468;27;19918;-57
2022/08/25 14:44:53;;;;;;;;;;;29.00;66.80;;;;;;5141455;27;19918;-55
2022/08/25 14:47:33;;;;;;;;;;;29.00;66.40;;;;;;5124668;27;20284;-56
2022/08/25 14:50:14;;;;;;;;;;;28.90;65.40;;;;;;5125610;27;19918;-56
2022/08/25 14:52:54;;;;;;;;;;;28.90;64.30;;;;;;5125614;27;19931;-57
2022/08/25 14:55:34;;;;;;;;;;;28.90;64.80;;;;;;5104927;27;20253;-56
2022/08/25 14:58:13;;;;;;;;;;;28.90;65.10;;;;;;5139377;27;19915;-55
2022/08/25 15:00:53;;;;;;;;;;;28.90;65.70;;;;;;5124685;27;19912;-56
2022/08/25 15:03:36;;;;;;;;;;;28.80;64.30;;;;;;5125328;27;19912;-56
2022/08/25 15:06:16;;;;;;;;;;;28.90;65.90;;;;;;5152507;27;19919;-56
2022/08/25 15:09:14;;;;;;;;;;;28.90;65.90;;;;;;5123918;27;19912;-57
2022/08/25 15:11:56;;;;;;;;;;;29.00;64.40;;;;;;5124069;27;20380;-56
2022/08/25 15:14:39;;;;;;;;;;;29.00;63.40;;;;;;5125842;27;20446;-56
2022/08/25 15:17:19;;;;;;;;;;;29.00;63.80;;;;;;5125097;27;19916;-56
2022/08/25 15:19:59;;;;;;;;;;;29.10;63.70;;;;;;5144968;27;19915;-57
2022/08/25 15:22:39;;;;;;;;;;;29.10;63.70;;;;;;5106029;27;20381;-56
2022/08/25 15:25:20;;;;;;;;;;;29.10;62.00;;;;;;5125855;27;19925;-56
2022/08/25 15:28:03;;;;;;;;;;;29.00;62.70;;;;;;5124709;27;20373;-56
2022/08/25 15:30:43;;;;;;;;;;;29.00;62.80;;;;;;5124804;27;19912;-57
2022/08/25 15:33:23;;;;;;;;;;;29.00;63.10;;;;;;5123201;27;20343;-57
2022/08/25 15:36:03;;;;;;;;;;;29.00;61.30;;;;;;5125370;27;20275;-57
2022/08/25 15:38:43;;;;;;;;;;;29.00;62.80;;;;;;5124953;27;19912;-56
2022/08/25 15:41:24;;;;;;;;;;;29.10;61.50;;;;;;5151832;27;19915;-57
2022/08/25 15:44:05;;;;;;;;;;;29.00;61.10;;;;;;5125494;27;19912;-57
2022/08/25 15:46:46;;;;;;;;;;;29.00;61.00;;;;;;5125061;27;19926;-57
2022/08/25 15:49:26;;;;;;;;;;;29.00;61.60;;;;;;5103787;27;19934;-56
2022/08/25 15:52:07;;;;;;;;;;;28.90;61.60;;;;;;5118577;27;19912;-56
2022/08/25 15:54:47;;;;;;;;;;;29.00;61.40;;;;;;5099053;27;19912;-56